createdAt,value
2022-10-24T00:00:11.562Z,96.70
2022-10-24T00:02:38.474Z,96.70
2022-10-24T00:05:05.617Z,96.70
2022-10-24T00:07:32.443Z,96.70
2022-10-24T00:09:59.273Z,96.70
2022-10-24T00:12:26.131Z,96.70
2022-10-24T00:14:52.974Z,96.70
2022-10-24T00:17:19.843Z,96.70
2022-10-24T00:19:46.959Z,96.70
2022-10-24T00:22:13.775Z,96.70
2022-10-24T00:24:40.601Z,96.70
2022-10-24T00:27:09.575Z,96.70
2022-10-24T00:29:36.462Z,96.70
2022-10-24T00:32:03.377Z,96.70
2022-10-24T00:34:30.211Z,96.70
2022-10-24T00:36:57.037Z,96.80
2022-10-24T00:39:23.940Z,96.80
2022-10-24T00:41:50.837Z,96.70
2022-10-24T00:44:31.567Z,96.70
2022-10-24T00:47:00.194Z,96.70
2022-10-24T00:49:32.177Z,96.70
2022-10-24T00:52:04.152Z,96.70
2022-10-24T00:54:31.014Z,96.70
2022-10-24T00:57:12.000Z,96.70
2022-10-24T00:59:38.791Z,96.70
2022-10-24T01:02:05.755Z,96.70
2022-10-24T01:04:32.624Z,96.70
2022-10-24T01:07:17.556Z,96.70
2022-10-24T01:09:53.379Z,96.80
2022-10-24T01:12:43.274Z,96.70
2022-10-24T01:15:21.232Z,96.70
2022-10-24T01:17:59.529Z,96.70
2022-10-24T01:20:48.304Z,96.70
2022-10-24T01:23:21.626Z,96.60
2022-10-24T01:26:13.219Z,96.60
2022-10-24T01:29:00.263Z,96.60
2022-10-24T01:31:34.412Z,96.60
2022-10-24T01:34:10.427Z,96.60
2022-10-24T01:36:40.041Z,96.60
2022-10-24T01:39:11.238Z,96.60
2022-10-24T01:41:38.143Z,96.70
2022-10-24T01:44:05.835Z,96.70
2022-10-24T01:46:52.395Z,96.70
2022-10-24T01:49:20.847Z,96.80
2022-10-24T01:51:48.924Z,96.70
2022-10-24T01:54:16.047Z,96.70
2022-10-24T01:56:42.968Z,96.60
2022-10-24T01:59:29.762Z,96.60
2022-10-24T02:02:02.474Z,96.60
2022-10-24T02:04:30.186Z,96.70
2022-10-24T02:06:57.220Z,96.70
2022-10-24T02:09:24.542Z,96.70
2022-10-24T02:11:51.450Z,96.70
2022-10-24T02:14:21.090Z,96.60
2022-10-24T02:16:47.936Z,96.60
2022-10-24T02:19:14.737Z,96.50
2022-10-24T02:22:06.344Z,96.50
2022-10-24T02:24:45.745Z,96.50
2022-10-24T02:27:14.788Z,96.40
2022-10-24T02:30:04.141Z,96.40
2022-10-24T02:32:40.169Z,96.40
2022-10-24T02:35:07.657Z,96.30
2022-10-24T02:37:35.441Z,96.30
2022-10-24T02:40:02.369Z,96.30
2022-10-24T02:45:01.397Z,96.30
2022-10-24T02:47:28.285Z,96.30
2022-10-24T02:49:55.437Z,96.30
2022-10-24T02:52:23.521Z,96.20
2022-10-24T02:54:50.860Z,96.20
2022-10-24T02:57:17.770Z,96.20
2022-10-24T02:59:44.562Z,96.30
2022-10-24T03:02:11.443Z,96.30
2022-10-24T03:04:38.265Z,96.50
2022-10-24T03:07:05.128Z,96.30
2022-10-24T03:09:31.949Z,96.30
2022-10-24T03:11:58.798Z,96.30
2022-10-24T03:14:25.639Z,96.30
2022-10-24T03:16:52.511Z,96.30
2022-10-24T03:19:19.370Z,96.20
2022-10-24T03:21:46.185Z,96.20
2022-10-24T03:24:13.053Z,96.10
2022-10-24T03:26:39.871Z,96.10
2022-10-24T03:29:06.688Z,96.00
2022-10-24T03:31:33.578Z,96.00
2022-10-24T03:34:00.466Z,95.90
2022-10-24T03:36:27.286Z,95.90
2022-10-24T03:38:54.112Z,95.90
2022-10-24T03:41:20.885Z,95.80
2022-10-24T03:43:47.687Z,95.80
2022-10-24T03:46:14.510Z,95.80
2022-10-24T03:48:41.294Z,95.70
2022-10-24T03:51:08.121Z,95.70
2022-10-24T03:53:35.185Z,95.70
2022-10-24T03:56:02.118Z,95.60
2022-10-24T03:58:29.037Z,95.60
2022-10-24T04:00:58.765Z,95.60
2022-10-24T04:03:26.771Z,95.60
2022-10-24T04:05:53.803Z,95.60
2022-10-24T04:08:20.726Z,95.50
2022-10-24T04:10:48.382Z,95.50
2022-10-24T04:13:15.164Z,95.50
2022-10-24T04:15:41.973Z,95.50
2022-10-24T04:18:09.748Z,95.40
2022-10-24T04:20:36.584Z,95.40
2022-10-24T04:23:04.517Z,95.40
2022-10-24T04:25:31.607Z,95.40
2022-10-24T04:27:58.416Z,95.60
2022-10-24T04:30:26.387Z,95.40
2022-10-24T04:32:53.229Z,95.30
2022-10-24T04:35:20.073Z,95.30
2022-10-24T04:37:46.885Z,95.30
2022-10-24T04:40:13.765Z,95.30
2022-10-24T04:42:40.583Z,95.30
2022-10-24T04:45:08.178Z,95.30
2022-10-24T04:47:35.077Z,95.20
2022-10-24T04:50:02.118Z,95.10
2022-10-24T04:52:28.940Z,95.10
2022-10-24T04:54:55.838Z,95.10
2022-10-24T04:57:22.663Z,95.10
2022-10-24T04:59:49.499Z,95.10
2022-10-24T05:02:16.456Z,95.10
2022-10-24T05:04:43.252Z,95.20
2022-10-24T05:07:10.084Z,95.20
2022-10-24T05:09:36.905Z,95.30
2022-10-24T05:12:04.831Z,95.30
2022-10-24T05:14:31.706Z,95.30
2022-10-24T05:16:58.496Z,95.30
2022-10-24T05:19:25.299Z,95.30
2022-10-24T05:21:52.132Z,95.20
2022-10-24T05:24:18.949Z,95.20
2022-10-24T05:26:45.762Z,95.10
2022-10-24T05:29:12.588Z,95.10
2022-10-24T05:31:39.486Z,95.10
2022-10-24T05:34:06.326Z,95.00
2022-10-24T05:36:33.146Z,95.00
2022-10-24T05:39:00.028Z,95.00
2022-10-24T05:41:26.858Z,95.00
2022-10-24T05:43:53.659Z,95.00
2022-10-24T05:46:20.490Z,94.90
2022-10-24T05:48:47.306Z,94.90
2022-10-24T05:51:14.103Z,94.90
2022-10-24T05:53:40.962Z,94.80
2022-10-24T05:56:07.829Z,94.90
2022-10-24T05:58:34.778Z,94.90
2022-10-24T06:01:01.706Z,94.80
2022-10-24T06:03:28.639Z,94.80
2022-10-24T06:05:55.434Z,94.80
2022-10-24T06:08:22.313Z,94.80
2022-10-24T06:10:50.040Z,94.90
2022-10-24T06:13:17.159Z,94.90
2022-10-24T06:15:44.444Z,94.90
2022-10-24T06:18:11.377Z,94.90
2022-10-24T06:20:38.305Z,95.00
2022-10-24T06:23:05.180Z,95.00
2022-10-24T06:25:32.003Z,95.00
2022-10-24T06:27:59.222Z,95.00
2022-10-24T06:30:26.167Z,95.10
2022-10-24T06:32:53.015Z,95.10
2022-10-24T06:35:19.901Z,95.10
2022-10-24T06:37:48.271Z,95.10
2022-10-24T06:40:16.637Z,95.10
2022-10-24T06:42:43.579Z,95.10
2022-10-24T06:45:10.811Z,95.10
2022-10-24T06:47:37.686Z,95.10
2022-10-24T06:50:05.272Z,95.10
2022-10-24T06:52:32.149Z,95.10
2022-10-24T06:54:58.958Z,95.20
2022-10-24T06:57:25.903Z,95.20
2022-10-24T06:59:53.361Z,95.20
2022-10-24T07:02:20.518Z,95.20
2022-10-24T07:04:47.397Z,95.10
2022-10-24T07:07:18.901Z,95.10
2022-10-24T07:09:46.933Z,95.10
2022-10-24T07:12:13.881Z,95.10
2022-10-24T07:14:40.705Z,95.10
2022-10-24T07:17:07.473Z,95.10
2022-10-24T07:19:37.375Z,95.10
2022-10-24T07:22:04.395Z,95.10
2022-10-24T07:24:31.326Z,95.00
2022-10-24T07:26:58.419Z,95.00
2022-10-24T07:29:25.267Z,95.00
2022-10-24T07:31:52.114Z,95.00
2022-10-24T07:34:19.048Z,94.90
2022-10-24T07:36:45.870Z,94.90
2022-10-24T07:39:13.231Z,94.90
2022-10-24T07:41:41.317Z,94.80
2022-10-24T07:44:08.260Z,94.80
2022-10-24T07:46:35.115Z,94.80
2022-10-24T07:49:02.058Z,94.70
2022-10-24T07:51:29.818Z,94.70
2022-10-24T07:53:57.797Z,94.60
2022-10-24T07:56:24.653Z,94.60
2022-10-24T07:58:51.479Z,94.50
2022-10-24T08:01:20.134Z,94.50
2022-10-24T08:03:47.017Z,94.50
2022-10-24T08:06:16.051Z,94.40
2022-10-24T08:08:42.903Z,94.40
2022-10-24T08:11:11.348Z,94.30
2022-10-24T08:13:38.321Z,94.30
2022-10-24T08:16:09.592Z,94.20
2022-10-24T08:18:38.869Z,94.10
2022-10-24T08:21:08.140Z,94.10
2022-10-24T08:23:35.312Z,94.00
2022-10-24T08:26:05.802Z,93.90
2022-10-24T08:28:32.687Z,93.80
2022-10-24T08:31:00.852Z,93.80
2022-10-24T08:33:27.831Z,93.70
2022-10-24T08:35:55.691Z,93.60
2022-10-24T08:38:22.568Z,93.60
2022-10-24T08:40:49.834Z,93.50
2022-10-24T08:43:16.992Z,93.40
2022-10-24T08:45:46.719Z,93.30
2022-10-24T08:48:14.086Z,93.30
2022-10-24T08:50:42.460Z,93.20
2022-10-24T08:53:28.832Z,93.00
2022-10-24T08:55:56.855Z,92.70
2022-10-24T08:58:34.630Z,92.80
2022-10-24T09:01:03.248Z,92.50
2022-10-24T09:04:02.077Z,92.50
2022-10-24T09:06:32.247Z,92.40
2022-10-24T09:09:04.034Z,92.40
2022-10-24T09:11:52.051Z,92.40
2022-10-24T09:14:20.147Z,92.20
2022-10-24T09:16:53.238Z,92.30
2022-10-24T09:19:22.121Z,92.30
2022-10-24T09:21:49.072Z,92.30
2022-10-24T09:24:42.460Z,92.30
2022-10-24T09:27:18.005Z,92.20
2022-10-24T09:29:44.985Z,92.10
2022-10-24T09:32:17.164Z,92.10
2022-10-24T09:34:44.509Z,92.00
2022-10-24T09:37:37.668Z,91.90
2022-10-24T09:40:09.837Z,91.70
2022-10-24T09:42:37.950Z,91.80
2022-10-24T09:45:41.611Z,91.80
2022-10-24T09:48:29.226Z,91.50
2022-10-24T09:50:57.394Z,91.50
2022-10-24T09:53:42.512Z,91.40
2022-10-24T09:56:15.726Z,91.00
2022-10-24T09:58:42.721Z,90.80
2022-10-24T10:01:22.728Z,90.70
2022-10-24T10:04:08.866Z,90.70
2022-10-24T10:06:37.409Z,90.40
2022-10-24T10:09:04.307Z,90.40
2022-10-24T10:11:35.200Z,90.50
2022-10-24T10:14:02.426Z,90.30
2022-10-24T10:16:31.386Z,90.00
2022-10-24T10:19:05.396Z,90.00
2022-10-24T10:21:59.663Z,89.50
2022-10-24T10:24:35.556Z,89.10
2022-10-24T10:27:02.742Z,88.80
2022-10-24T10:29:29.517Z,88.80
2022-10-24T10:32:27.814Z,88.60
2022-10-24T10:35:04.641Z,87.80
2022-10-24T10:37:32.533Z,87.60
2022-10-24T10:40:21.139Z,87.50
2022-10-24T10:42:57.326Z,87.00
2022-10-24T10:45:33.259Z,86.60
2022-10-24T10:48:10.379Z,86.40
2022-10-24T10:50:47.866Z,86.70
2022-10-24T10:53:35.144Z,86.70
2022-10-24T10:56:07.835Z,87.10
2022-10-24T10:58:49.813Z,86.40
2022-10-24T11:01:35.505Z,85.60
2022-10-24T11:04:08.455Z,85.60
2022-10-24T11:06:55.886Z,85.20
2022-10-24T11:09:29.775Z,84.80
2022-10-24T11:12:06.339Z,85.40
2022-10-24T11:14:37.085Z,85.40
2022-10-24T11:17:19.457Z,85.20
2022-10-24T11:20:07.445Z,84.40
2022-10-24T11:22:50.126Z,84.30
2022-10-24T11:25:33.066Z,83.40
2022-10-24T11:28:31.370Z,82.60
2022-10-24T11:31:13.587Z,82.20
2022-10-24T11:33:46.896Z,81.30
2022-10-24T11:36:24.523Z,80.50
2022-10-24T11:38:58.710Z,79.70
2022-10-24T11:41:34.521Z,78.80
2022-10-24T11:44:10.495Z,78.30
2022-10-24T11:46:41.314Z,77.50
2022-10-24T11:49:31.302Z,77.70
2022-10-24T11:52:10.902Z,75.80
2022-10-24T11:54:44.909Z,75.60
2022-10-24T11:59:43.246Z,75.80
2022-10-24T12:02:41.186Z,76.20
2022-10-24T12:05:27.571Z,76.20
2022-10-24T12:08:19.242Z,75.90
2022-10-24T12:11:04.869Z,75.20
2022-10-24T12:13:51.841Z,74.70
2022-10-24T12:16:37.738Z,74.90
2022-10-24T12:19:06.121Z,75.00
2022-10-24T12:21:40.244Z,74.80
2022-10-24T12:24:13.938Z,73.90
2022-10-24T12:26:42.090Z,73.70
2022-10-24T12:29:21.947Z,73.20
2022-10-24T12:31:48.835Z,72.00
2022-10-24T12:34:15.823Z,71.00
2022-10-24T12:37:19.244Z,71.00
2022-10-24T12:39:47.935Z,71.60
2022-10-24T12:42:23.780Z,72.80
2022-10-24T12:44:59.775Z,73.50
2022-10-24T12:47:35.613Z,74.60
2022-10-24T12:50:23.462Z,75.40
2022-10-24T12:53:11.643Z,76.20
2022-10-24T12:55:39.913Z,77.10
2022-10-24T12:58:28.617Z,78.00
2022-10-24T13:00:55.402Z,78.40
2022-10-24T13:03:32.170Z,78.80
2022-10-24T13:06:04.791Z,79.00
2022-10-24T13:08:52.599Z,79.20
2022-10-24T13:11:44.758Z,78.70
2022-10-24T13:14:53.155Z,78.70
2022-10-24T13:17:41.343Z,78.20
2022-10-24T13:20:18.272Z,77.80
2022-10-24T13:22:45.435Z,76.60
2022-10-24T13:25:35.454Z,75.80
2022-10-24T13:28:20.397Z,74.70
2022-10-24T13:30:49.670Z,74.50
2022-10-24T13:33:31.888Z,74.20
2022-10-24T13:36:16.245Z,73.20
2022-10-24T13:39:02.852Z,71.90
2022-10-24T13:41:37.374Z,70.30
2022-10-24T13:44:38.371Z,69.50
2022-10-24T13:47:17.430Z,68.40
2022-10-24T13:49:53.212Z,67.50
2022-10-24T13:52:21.398Z,66.70
2022-10-24T13:54:53.181Z,66.40
2022-10-24T13:57:33.678Z,65.90
2022-10-24T14:00:02.426Z,65.50
2022-10-24T14:02:39.510Z,65.40
2022-10-24T14:05:06.596Z,64.60
2022-10-24T14:07:36.215Z,64.70
2022-10-24T14:10:05.300Z,64.80
2022-10-24T14:12:32.655Z,64.50
2022-10-24T14:15:02.553Z,63.80
2022-10-24T14:17:34.462Z,63.40
2022-10-24T14:20:22.785Z,62.80
2022-10-24T14:22:49.771Z,62.50
2022-10-24T14:25:25.807Z,62.50
2022-10-24T14:27:53.983Z,62.20
2022-10-24T14:30:22.554Z,62.50
2022-10-24T14:32:49.603Z,62.00
2022-10-24T14:35:16.570Z,62.00
2022-10-24T14:37:43.694Z,61.70
2022-10-24T14:40:17.447Z,61.30
2022-10-24T14:42:45.877Z,60.90
2022-10-24T14:45:30.216Z,61.00
2022-10-24T14:47:58.678Z,60.90
2022-10-24T14:50:35.943Z,61.80
2022-10-24T14:53:02.781Z,61.60
2022-10-24T14:55:29.557Z,62.10
2022-10-24T14:57:57.046Z,62.30
2022-10-24T15:00:27.939Z,62.10
2022-10-24T15:02:56.795Z,62.10
2022-10-24T15:05:23.813Z,62.40
2022-10-24T15:08:16.709Z,62.50
2022-10-24T15:10:42.472Z,62.50
2022-10-24T15:13:25.282Z,63.20
2022-10-24T15:15:57.371Z,63.10
2022-10-24T15:18:31.645Z,64.10
2022-10-24T15:21:07.114Z,64.20
2022-10-24T15:23:36.062Z,64.10
2022-10-24T15:26:14.933Z,64.50
2022-10-24T15:28:47.547Z,64.60
2022-10-24T15:31:16.203Z,64.80
2022-10-24T15:33:43.243Z,65.70
2022-10-24T15:36:20.692Z,66.50
2022-10-24T15:38:48.563Z,67.20
2022-10-24T15:41:16.195Z,68.30
2022-10-24T15:43:43.122Z,69.00
2022-10-24T15:46:09.923Z,69.60
2022-10-24T15:48:38.916Z,70.20
2022-10-24T15:51:05.913Z,70.70
2022-10-24T15:53:32.767Z,71.10
2022-10-24T15:55:59.625Z,71.40
2022-10-24T15:58:28.731Z,72.20
2022-10-24T16:00:55.741Z,71.90
2022-10-24T16:03:23.572Z,72.10
2022-10-24T16:05:52.538Z,72.20
2022-10-24T16:08:19.908Z,72.60
2022-10-24T16:10:49.108Z,72.90
2022-10-24T16:13:16.374Z,73.40
2022-10-24T16:15:43.313Z,73.90
2022-10-24T16:18:10.149Z,74.40
2022-10-24T16:20:37.060Z,74.80
2022-10-24T16:23:04.098Z,75.20
2022-10-24T16:25:32.589Z,75.60
2022-10-24T16:27:59.484Z,76.00
2022-10-24T16:30:28.121Z,76.40
2022-10-24T16:32:55.293Z,76.70
2022-10-24T16:35:24.586Z,77.10
2022-10-24T16:37:52.273Z,77.40
2022-10-24T16:40:19.121Z,77.70
2022-10-24T16:42:47.511Z,78.10
2022-10-24T16:45:14.562Z,78.50
2022-10-24T16:47:41.482Z,78.90
2022-10-24T16:50:11.904Z,79.30
2022-10-24T16:52:38.673Z,79.60
2022-10-24T16:55:05.833Z,80.00
2022-10-24T16:57:32.686Z,80.40
2022-10-24T17:00:00.069Z,80.80
2022-10-24T17:02:26.892Z,81.20
2022-10-24T17:04:53.803Z,81.40
2022-10-24T17:07:20.640Z,81.80
2022-10-24T17:09:47.500Z,82.10
2022-10-24T17:12:14.469Z,82.40
2022-10-24T17:14:41.361Z,82.70
2022-10-24T17:17:08.189Z,83.00
2022-10-24T17:19:36.418Z,83.40
2022-10-24T17:22:03.458Z,83.70
2022-10-24T17:24:30.460Z,84.00
2022-10-24T17:26:57.457Z,84.30
2022-10-24T17:29:32.326Z,84.70
2022-10-24T17:31:59.663Z,85.00
2022-10-24T17:34:26.846Z,85.20
2022-10-24T17:37:03.360Z,85.50
2022-10-24T17:39:45.794Z,85.80
2022-10-24T17:42:12.941Z,86.00
2022-10-24T17:44:39.935Z,86.00
2022-10-24T17:47:06.963Z,86.30
2022-10-24T17:49:33.808Z,86.40
2022-10-24T17:52:00.691Z,86.60
2022-10-24T17:54:27.603Z,86.90
2022-10-24T17:56:54.581Z,87.20
2022-10-24T17:59:24.536Z,87.40
2022-10-24T18:01:51.559Z,87.70
2022-10-24T18:04:18.558Z,88.10
2022-10-24T18:06:45.446Z,88.50
2022-10-24T18:09:12.303Z,88.90
2022-10-24T18:11:39.964Z,89.10
2022-10-24T18:14:07.139Z,89.40
2022-10-24T18:16:33.999Z,89.70
2022-10-24T18:19:00.803Z,89.90
2022-10-24T18:21:28.461Z,90.00
2022-10-24T18:23:55.801Z,90.10
2022-10-24T18:26:25.565Z,90.10
2022-10-24T18:28:53.345Z,90.20
2022-10-24T18:31:25.493Z,90.30
2022-10-24T18:33:52.312Z,90.30
2022-10-24T18:36:21.080Z,90.30
2022-10-24T18:38:47.943Z,90.40
2022-10-24T18:41:23.195Z,90.50
2022-10-24T18:43:50.325Z,90.50
2022-10-24T18:46:17.373Z,90.60
2022-10-24T18:48:44.469Z,90.50
2022-10-24T18:51:20.057Z,90.60
2022-10-24T18:53:47.074Z,90.60
2022-10-24T18:56:17.429Z,90.70
2022-10-24T18:58:49.107Z,90.70
2022-10-24T19:01:24.885Z,90.70
2022-10-24T19:03:52.029Z,90.70
2022-10-24T19:06:26.037Z,90.70
2022-10-24T19:08:53.077Z,90.80
2022-10-24T19:11:20.143Z,90.80
2022-10-24T19:13:47.202Z,90.90
2022-10-24T19:16:22.283Z,91.00
2022-10-24T19:18:55.673Z,91.00
2022-10-24T19:21:23.325Z,91.10
2022-10-24T19:23:50.710Z,91.10
2022-10-24T19:26:17.597Z,91.20
2022-10-24T19:28:44.489Z,91.20
2022-10-24T19:31:13.396Z,91.30
2022-10-24T19:33:41.296Z,91.30
2022-10-24T19:36:08.574Z,91.60
2022-10-24T19:38:35.484Z,91.40
2022-10-24T19:41:02.303Z,91.40
2022-10-24T19:43:32.764Z,91.50
2022-10-24T19:46:20.101Z,91.50
2022-10-24T19:48:49.238Z,91.60
2022-10-24T19:51:16.950Z,91.60
2022-10-24T19:53:45.469Z,91.60
2022-10-24T19:56:14.082Z,91.90
2022-10-24T19:58:43.241Z,91.70
2022-10-24T20:01:15.496Z,91.70
2022-10-24T20:03:44.016Z,91.80
2022-10-24T20:06:11.522Z,91.80
2022-10-24T20:08:38.555Z,91.80
2022-10-24T20:11:05.580Z,91.90
2022-10-24T20:13:32.457Z,91.90
2022-10-24T20:16:04.327Z,92.00
2022-10-24T20:18:32.265Z,92.00
2022-10-24T20:20:59.293Z,92.00
2022-10-24T20:23:26.135Z,92.00
2022-10-24T20:26:07.878Z,92.10
2022-10-24T20:28:35.628Z,92.10
2022-10-24T20:31:02.531Z,92.10
2022-10-24T20:33:29.342Z,92.10
2022-10-24T20:35:59.952Z,92.20
2022-10-24T20:38:27.571Z,92.30
2022-10-24T20:40:54.494Z,92.30
2022-10-24T20:43:21.371Z,92.30
2022-10-24T20:45:48.257Z,92.30
2022-10-24T20:48:15.143Z,92.30
2022-10-24T20:50:41.966Z,92.30
2022-10-24T20:53:08.809Z,92.30
2022-10-24T20:55:44.235Z,92.30
2022-10-24T20:58:13.322Z,92.30
2022-10-24T21:03:12.210Z,92.40
2022-10-24T21:05:39.274Z,92.60
2022-10-24T21:08:06.295Z,92.40
2022-10-24T21:10:33.110Z,92.40
2022-10-24T21:13:00.051Z,92.40
2022-10-24T21:15:26.882Z,92.50
2022-10-24T21:17:53.681Z,92.50
2022-10-24T21:20:20.574Z,92.60
2022-10-24T21:22:47.399Z,92.60
2022-10-24T21:25:14.270Z,92.60
2022-10-24T21:27:41.168Z,92.60
2022-10-24T21:30:13.519Z,92.60
2022-10-24T21:32:41.465Z,92.60
2022-10-24T21:35:08.369Z,92.60
2022-10-24T21:37:35.183Z,92.60
2022-10-24T21:40:02.093Z,92.70
2022-10-24T21:42:33.275Z,92.70
2022-10-24T21:45:00.586Z,92.70
2022-10-24T21:47:27.907Z,92.80
2022-10-24T21:49:54.716Z,92.70
2022-10-24T21:52:21.573Z,92.70
2022-10-24T21:54:48.408Z,92.70
2022-10-24T21:57:15.175Z,92.70
2022-10-24T21:59:42.047Z,92.70
2022-10-24T22:02:09.280Z,92.80
2022-10-24T22:04:36.257Z,92.80
2022-10-24T22:07:03.071Z,92.80
2022-10-24T22:09:32.398Z,92.80
2022-10-24T22:11:59.292Z,92.80
2022-10-24T22:14:26.370Z,92.80
2022-10-24T22:16:53.228Z,92.80
2022-10-24T22:19:20.128Z,92.80
2022-10-24T22:21:48.324Z,92.80
2022-10-24T22:24:17.305Z,92.80
2022-10-24T22:26:44.163Z,92.90
2022-10-24T22:29:13.130Z,92.90
2022-10-24T22:31:40.252Z,92.90
2022-10-24T22:34:07.180Z,92.90
2022-10-24T22:36:55.826Z,92.90
2022-10-24T22:39:24.348Z,92.90
2022-10-24T22:41:51.593Z,92.90
2022-10-24T22:44:22.713Z,92.90
2022-10-24T22:47:17.827Z,92.90
2022-10-24T22:49:50.315Z,92.90
2022-10-24T22:52:17.370Z,92.90
2022-10-24T22:54:44.508Z,92.90
2022-10-24T22:57:11.570Z,92.90
2022-10-24T22:59:38.649Z,92.90
2022-10-24T23:02:14.656Z,92.90
2022-10-24T23:05:03.090Z,93.00
2022-10-24T23:07:41.358Z,93.00
2022-10-24T23:10:13.914Z,93.00
2022-10-24T23:12:41.902Z,93.00
2022-10-24T23:15:13.281Z,93.00
2022-10-24T23:17:40.319Z,93.10
2022-10-24T23:20:36.301Z,93.10
2022-10-24T23:23:15.778Z,93.20
2022-10-24T23:25:44.109Z,93.10
2022-10-24T23:28:43.641Z,93.20
2022-10-24T23:31:10.814Z,93.20
2022-10-24T23:33:38.009Z,93.20
2022-10-24T23:36:05.150Z,93.20
2022-10-24T23:38:32.582Z,93.30
2022-10-24T23:40:59.687Z,93.30
2022-10-24T23:43:26.835Z,93.30
2022-10-24T23:46:02.107Z,93.30
2022-10-24T23:48:43.904Z,93.40
2022-10-24T23:51:13.938Z,93.40
2022-10-24T23:53:51.340Z,93.40
2022-10-24T23:56:19.606Z,93.40
2022-10-24T23:58:46.452Z,93.30
